Time;durP1;ratioP1;P1;durP2;ratioP2;P2;SDS_P1;SDS_P2;PMS_P1;PMS_P2;Temp;Humidity;BMP_temperature;BMP_pressure;BME280_temperature;BME280_humidity;BME280_pressure;Samples;Min_cycle;Max_cycle;Signal;HPM_P1;HPM_P2
2024/01/14 00:00:41;;;;;;;9.73;5.50;;;;;;;-18.96;100.00;99059.06;4996615;28;20827;-67
2024/01/14 00:03:07;;;;;;;13.57;6.10;;;;;;;-19.06;100.00;99055.66;4997038;28;20072;-68
2024/01/14 00:05:33;;;;;;;14.47;5.67;;;;;;;-19.03;100.00;99055.66;5013166;28;20185;-67
2024/01/14 00:08:00;;;;;;;8.93;5.43;;;;;;;-18.97;100.00;99050.63;4996764;28;20053;-67
2024/01/14 00:10:27;;;;;;;13.48;6.22;;;;;;;-18.93;100.00;99044.75;4996753;28;20165;-67
2024/01/14 00:12:53;;;;;;;11.80;5.82;;;;;;;-18.93;100.00;99048.97;5000797;28;20068;-69
2024/01/14 00:15:19;;;;;;;15.50;6.27;;;;;;;-18.93;100.00;99039.69;5000380;28;20062;-72
2024/01/14 00:17:45;;;;;;;12.70;5.90;;;;;;;-18.91;100.00;99032.94;5017117;28;20391;-68
2024/01/14 00:20:14;;;;;;;10.80;5.47;;;;;;;-18.80;100.00;99027.94;4999809;28;20057;-67
2024/01/14 00:22:40;;;;;;;11.63;5.85;;;;;;;-18.90;100.00;99029.59;5037347;28;20052;-68
2024/01/14 00:25:08;;;;;;;13.47;6.07;;;;;;;-18.86;100.00;99026.22;5094010;28;20098;-68
2024/01/14 00:27:35;;;;;;;7.63;5.18;;;;;;;-18.83;100.00;99016.09;5080999;28;20066;-67
2024/01/14 00:30:03;;;;;;;11.18;4.93;;;;;;;-18.71;100.00;99008.53;5097138;28;20052;-67
2024/01/14 00:32:29;;;;;;;14.10;4.88;;;;;;;-18.71;100.00;99007.69;5097503;28;20138;-67
2024/01/14 00:34:55;;;;;;;13.85;4.90;;;;;;;-18.73;100.00;98995.03;5059290;28;20415;-68
2024/01/14 00:37:21;;;;;;;11.63;5.40;;;;;;;-18.72;100.00;98995.88;5025966;28;20059;-68
2024/01/14 00:39:47;;;;;;;8.57;5.43;;;;;;;-18.75;100.00;98995.84;5043866;28;20762;-69
2024/01/14 00:42:16;;;;;;;9.73;4.60;;;;;;;-18.74;100.00;98990.81;5045432;28;20085;-69
2024/01/14 00:44:43;;;;;;;8.25;4.47;;;;;;;-18.80;100.00;99002.63;5031774;28;20139;-66
2024/01/14 00:47:09;;;;;;;7.40;4.23;;;;;;;-18.78;100.00;98981.53;5045684;28;20130;-67
2024/01/14 00:49:35;;;;;;;11.33;4.73;;;;;;;-18.82;100.00;98972.25;5045732;28;20055;-68
2024/01/14 00:52:03;;;;;;;12.33;5.17;;;;;;;-18.74;100.00;98993.34;5062392;28;20031;-69
2024/01/14 00:54:28;;;;;;;9.43;4.75;;;;;;;-18.82;100.00;98984.91;5045949;28;20051;-68
2024/01/14 00:56:55;;;;;;;12.60;4.90;;;;;;;-18.82;100.00;98974.78;5079836;28;20054;-69
2024/01/14 00:59:22;;;;;;;12.45;5.65;;;;;;;-18.74;100.00;98977.31;5095986;28;20054;-72
2024/01/14 01:01:48;;;;;;;9.02;4.82;;;;;;;-18.86;100.00;98968.00;5079171;28;20134;-67
2024/01/14 01:04:14;;;;;;;13.75;5.10;;;;;;;-18.88;100.00;98977.31;5038697;28;20507;-69
2024/01/14 01:06:40;;;;;;;11.57;5.10;;;;;;;-18.92;100.00;98969.69;5040558;28;20080;-67
2024/01/14 01:09:06;;;;;;;9.53;5.73;;;;;;;-18.97;100.00;98969.66;5045724;28;20066;-67
2024/01/14 01:11:32;;;;;;;10.68;5.25;;;;;;;-19.02;100.00;98966.31;5063890;28;20184;-67
2024/01/14 01:13:57;;;;;;;8.33;4.97;;;;;;;-19.02;100.00;98956.19;5047188;28;20490;-68
2024/01/14 01:16:23;;;;;;;7.68;4.65;;;;;;;-19.01;100.00;98957.88;5078755;28;20062;-67
2024/01/14 01:18:49;;;;;;;8.47;4.23;;;;;;;-18.98;100.00;98968.00;5062233;28;20168;-67
2024/01/14 01:21:20;;;;;;;12.00;4.83;;;;;;;-18.88;100.00;98953.69;5078386;28;20056;-67
2024/01/14 01:23:45;;;;;;;;;;;;;;;-18.81;100.00;98948.63;5078249;28;20090;-68
2024/01/14 01:26:11;;;;;;;10.40;4.63;;;;;;;-18.93;100.00;98946.09;5045346;28;19970;-69
2024/01/14 01:28:49;;;;;;;6.63;3.75;;;;;;;-18.82;100.00;98939.34;5045476;28;20043;-67
2024/01/14 01:31:15;;;;;;;8.77;4.10;;;;;;;-18.90;100.00;98940.16;5046528;28;20097;-67
2024/01/14 01:33:41;;;;;;;9.43;4.17;;;;;;;-18.89;100.00;98942.69;5061506;28;20429;-67
2024/01/14 01:36:07;;;;;;;9.38;4.63;;;;;;;-18.88;100.00;98946.94;5077748;27;20054;-66
2024/01/14 01:38:33;;;;;;;7.40;4.03;;;;;;;-18.81;100.00;98945.25;5082437;27;20379;-67
2024/01/14 01:40:59;;;;;;;4.57;3.13;;;;;;;-18.75;100.00;98933.44;5082739;27;20039;-67
2024/01/14 01:43:25;;;;;;;6.55;3.75;;;;;;;-18.71;100.00;98912.34;5065835;27;20448;-66
2024/01/14 01:45:52;;;;;;;5.97;3.90;;;;;;;-18.62;100.00;98909.00;5082367;27;20050;-68
2024/01/14 01:48:19;;;;;;;4.35;3.45;;;;;;;-18.68;100.00;98922.47;5082864;27;20481;-68
2024/01/14 01:50:46;;;;;;;7.50;3.80;;;;;;;-18.57;100.00;98892.13;5082953;27;20054;-67
2024/01/14 01:53:14;;;;;;;10.98;4.57;;;;;;;-18.54;100.00;98900.53;5084369;27;20104;-67
2024/01/14 01:55:41;;;;;;;7.38;4.30;;;;;;;-18.56;100.00;98892.13;5101499;27;20504;-68
2024/01/14 01:58:07;;;;;;;15.90;4.93;;;;;;;-18.53;100.00;98894.66;5083003;27;20039;-67
2024/01/14 02:00:34;;;;;;;6.80;3.72;;;;;;;-18.52;100.00;98896.31;5133023;27;20038;-67
2024/01/14 02:03:01;;;;;;;6.72;4.20;;;;;;;-18.47;100.00;98899.69;5082406;27;20051;-68
2024/01/14 02:05:32;;;;;;;10.27;4.93;;;;;;;-18.45;100.00;98908.13;5098950;27;20156;-67
2024/01/14 02:07:58;;;;;;;11.15;4.47;;;;;;;-18.55;100.00;98893.78;5133406;27;20439;-67
2024/01/14 02:10:25;;;;;;;13.43;4.25;;;;;;;-18.61;100.00;98876.06;5099097;27;20493;-68
2024/01/14 02:12:52;;;;;;;8.15;4.28;;;;;;;-18.65;100.00;98871.88;5065301;27;20479;-67
2024/01/14 02:15:18;;;;;;;8.93;4.40;;;;;;;-18.61;100.00;98878.59;5082235;27;20043;-67
2024/01/14 02:17:44;;;;;;;9.87;4.20;;;;;;;-18.63;100.00;98865.09;5082169;27;20035;-68
2024/01/14 02:20:32;;;;;;;9.65;4.70;;;;;;;-18.60;100.00;98874.41;5090254;27;20057;-68
2024/01/14 02:23:00;;;;;;;7.10;4.15;;;;;;;-18.55;100.00;98865.94;5132533;27;20443;-68
2024/01/14 02:25:26;;;;;;;6.72;4.00;;;;;;;-18.61;100.00;98863.44;5098520;27;20055;-68
2024/01/14 02:27:53;;;;;;;9.43;4.00;;;;;;;-18.60;100.00;98875.22;5082087;27;20047;-68
2024/01/14 02:30:21;;;;;;;9.65;4.20;;;;;;;-18.60;100.00;98841.50;5132339;27;20096;-69
2024/01/14 02:32:48;;;;;;;10.15;4.65;;;;;;;-18.60;100.00;98844.84;5076884;28;20052;-67
2024/01/14 02:35:14;;;;;;;4.85;4.07;;;;;;;-18.66;100.00;98839.78;5043746;28;20617;-67
2024/01/14 02:37:43;;;;;;;7.40;4.50;;;;;;;-18.60;100.00;98834.72;5093858;28;20058;-69
2024/01/14 02:40:10;;;;;;;7.15;4.22;;;;;;;-18.46;100.00;98837.22;5044200;28;20403;-70
2024/01/14 02:42:37;;;;;;;7.40;4.38;;;;;;;-18.47;100.00;98835.56;5060056;28;20075;-68
2024/01/14 02:45:04;;;;;;;7.88;3.92;;;;;;;-18.36;100.00;98828.75;5060104;28;20097;-69
2024/01/14 02:47:30;;;;;;;8.68;4.85;;;;;;;-18.39;100.00;98822.06;5039927;28;20040;-69
2024/01/14 02:49:58;;;;;;;7.60;4.37;;;;;;;-18.36;100.00;98806.81;5023661;28;20092;-72
2024/01/14 02:52:24;;;;;;;7.60;3.97;;;;;;;-18.35;100.00;98807.63;5073767;28;20531;-69
2024/01/14 02:54:50;;;;;;;12.10;4.57;;;;;;;-18.40;100.00;98789.94;5056782;28;20055;-68
2024/01/14 02:57:15;;;;;;;7.57;4.43;;;;;;;-18.34;100.00;98789.09;5036290;28;20055;-69
2024/01/14 02:59:41;;;;;;;7.80;4.23;;;;;;;-18.33;100.00;98784.00;5040202;28;20036;-69
2024/01/14 03:02:07;;;;;;;8.33;4.90;;;;;;;-18.37;100.00;98782.31;5040119;28;20075;-69
2024/01/14 03:04:34;;;;;;;8.77;4.68;;;;;;;-18.27;100.00;98789.06;5039512;28;20488;-68
2024/01/14 03:07:01;;;;;;;9.57;4.05;;;;;;;-18.23;100.00;98790.72;5021845;28;20091;-69
2024/01/14 03:09:31;;;;;;;6.57;3.83;;;;;;;-18.30;100.00;98796.66;5042041;28;20105;-68
2024/01/14 03:11:58;;;;;;;6.60;3.57;;;;;;;-18.23;100.00;98790.72;5023482;28;20458;-68
2024/01/14 03:14:25;;;;;;;5.72;4.20;;;;;;;-18.23;100.00;98779.72;5040065;28;20048;-69
2024/01/14 03:16:51;;;;;;;7.65;4.30;;;;;;;-18.24;100.00;98788.19;5025068;28;20048;-69
2024/01/14 03:19:17;;;;;;;10.33;4.93;;;;;;;-18.25;100.00;98773.84;5024926;28;20516;-70
2024/01/14 03:21:43;;;;;;;8.53;4.23;;;;;;;-18.25;100.00;98767.06;5023862;28;20365;-68
2024/01/14 03:24:09;;;;;;;13.97;4.30;;;;;;;-18.25;100.00;98764.53;5056473;28;20139;-68
2024/01/14 03:26:34;;;;;;;9.90;4.07;;;;;;;-18.25;100.00;98754.41;5023133;28;20044;-68
2024/01/14 03:29:00;;;;;;;7.43;4.40;;;;;;;-18.25;100.00;98749.34;5039536;28;20040;-69
2024/01/14 03:31:26;;;;;;;6.60;3.93;;;;;;;-18.26;100.00;98760.34;5056615;28;20055;-68
2024/01/14 03:33:52;;;;;;;5.33;3.73;;;;;;;-18.30;100.00;98766.28;5023832;28;20144;-68
2024/01/14 03:36:18;;;;;;;9.00;4.40;;;;;;;-18.32;100.00;98754.44;5086839;28;20153;-68
2024/01/14 03:38:44;;;;;;;7.30;4.37;;;;;;;-18.33;100.00;98761.22;5044277;28;20573;-68
2024/01/14 03:41:10;;;;;;;8.50;4.10;;;;;;;-18.30;100.00;98745.16;5060691;28;20293;-67
2024/01/14 03:43:37;;;;;;;6.97;4.03;;;;;;;-18.24;100.00;98747.66;5093994;28;20031;-68
2024/01/14 03:46:04;;;;;;;6.57;4.53;;;;;;;-18.33;100.00;98740.97;5045550;28;20048;-67
2024/01/14 03:48:30;;;;;;;9.17;3.90;;;;;;;-18.33;100.00;98742.63;5080975;28;20471;-69
2024/01/14 03:50:57;;;;;;;5.35;3.58;;;;;;;-18.27;100.00;98737.56;5081893;27;20425;-68
2024/01/14 03:53:23;;;;;;;13.15;4.50;;;;;;;-18.35;100.00;98741.78;5084462;27;20526;-67
2024/01/14 03:55:49;;;;;;;5.85;4.00;;;;;;;-18.36;100.00;98727.47;5083866;27;20146;-69
2024/01/14 03:58:15;;;;;;;7.77;3.90;;;;;;;-18.33;100.00;98733.38;5101062;27;20125;-69
2024/01/14 04:00:41;;;;;;;9.52;4.05;;;;;;;-18.33;100.00;98723.22;5095829;27;20063;-68
2024/01/14 04:03:08;;;;;;;6.87;3.93;;;;;;;-18.33;100.00;98735.03;5084281;27;20045;-68
2024/01/14 04:05:37;;;;;;;6.45;3.53;;;;;;;-18.32;100.00;98724.06;5108772;27;20077;-67
2024/01/14 04:08:05;;;;;;;4.53;3.63;;;;;;;-18.29;100.00;98735.03;5108984;27;20089;-69
2024/01/14 04:10:31;;;;;;;8.05;3.63;;;;;;;-18.35;100.00;98719.00;5100241;27;20454;-69
2024/01/14 04:12:56;;;;;;;8.37;4.40;;;;;;;-18.38;100.00;98706.38;5100355;27;20043;-69
2024/01/14 04:15:22;;;;;;;4.60;3.73;;;;;;;-18.42;100.00;98713.19;5084489;27;20055;-71
2024/01/14 04:17:50;;;;;;;9.83;3.67;;;;;;;-18.44;100.00;98676.88;5084469;27;20557;-71
2024/01/14 04:20:23;;;;;;;6.35;3.65;;;;;;;-18.31;100.00;98680.19;5103953;27;20059;-73
2024/01/14 04:23:00;;;;;;;9.65;4.28;;;;;;;-18.41;100.00;98674.34;5060319;28;20060;-71
2024/01/14 04:25:25;;;;;;;8.60;3.80;;;;;;;-18.39;100.00;98677.72;5042200;28;20484;-69
2024/01/14 04:27:52;;;;;;;5.27;3.50;;;;;;;-18.41;100.00;98687.00;5066334;28;20047;-70
2024/01/14 04:30:19;;;;;;;9.70;3.58;;;;;;;-18.41;100.00;98696.28;5078928;28;20040;-69
2024/01/14 04:32:44;;;;;;;14.43;3.80;;;;;;;-18.47;100.00;98693.78;5043794;28;20058;-73
2024/01/14 04:35:10;;;;;;;10.77;4.40;;;;;;;-18.51;100.00;98692.09;5062849;28;20126;-69
2024/01/14 04:37:36;;;;;;;7.63;3.77;;;;;;;-18.55;100.00;98691.28;5061047;28;20086;-73
2024/01/14 04:40:03;;;;;;;8.38;4.35;;;;;;;-18.50;100.00;98688.72;5095298;28;20040;-72
2024/01/14 04:42:29;;;;;;;6.80;3.92;;;;;;;-18.58;100.00;98688.75;5077761;28;20075;-75
2024/01/14 04:44:55;;;;;;;7.03;3.73;;;;;;;-18.61;100.00;98665.97;5062761;28;20075;-77
2024/01/14 04:47:21;;;;;;;13.10;5.53;;;;;;;-18.59;100.00;98668.50;5062256;28;20031;-70
2024/01/14 04:49:46;;;;;;;4.97;4.10;;;;;;;-18.58;100.00;98662.59;5076852;28;20086;-72
2024/01/14 04:52:14;;;;;;;11.00;4.97;;;;;;;-18.58;100.00;98648.25;5061244;28;20134;-71
2024/01/14 04:54:39;;;;;;;12.38;6.40;;;;;;;-18.57;100.00;98652.47;5075200;27;20085;-68
2024/01/14 04:57:06;;;;;;;8.45;4.65;;;;;;;-18.53;100.00;98655.81;5082840;28;20035;-70
2024/01/14 04:59:32;;;;;;;9.83;4.53;;;;;;;-18.53;100.00;98654.16;5114819;27;20035;-70
2024/01/14 05:01:58;;;;;;;8.97;5.43;;;;;;;-18.51;100.00;98651.59;5117045;27;20430;-70
2024/01/14 05:04:24;;;;;;;7.05;5.05;;;;;;;-18.50;100.00;98649.06;5094141;27;20135;-71
2024/01/14 05:06:51;;;;;;;7.03;3.70;;;;;;;-18.49;100.00;98653.28;5081412;27;20039;-71
2024/01/14 05:09:17;;;;;;;12.32;3.55;;;;;;;-18.49;100.00;98662.53;5099625;27;20192;-70
2024/01/14 05:11:43;;;;;;;7.80;4.07;;;;;;;-18.43;100.00;98649.88;5099903;27;20039;-70
2024/01/14 05:14:09;;;;;;;12.77;3.97;;;;;;;-18.42;100.00;98651.56;5100638;27;20048;-75
2024/01/14 05:16:34;;;;;;;7.00;3.97;;;;;;;-18.41;100.00;98660.81;5100531;27;20053;-71
2024/01/14 05:19:01;;;;;;;5.50;3.42;;;;;;;-18.40;100.00;98650.69;5059694;28;20048;-72
2024/01/14 05:21:34;;;;;;;13.05;3.95;;;;;;;-18.30;100.00;98647.25;5020072;28;20491;-72
2024/01/14 05:24:01;;;;;;;6.05;4.43;;;;;;;-18.33;100.00;98643.88;4995534;28;20050;-71
2024/01/14 05:26:29;;;;;;;9.70;4.15;;;;;;;-18.28;100.00;98643.00;4957078;28;20515;-72
2024/01/14 05:28:59;;;;;;;8.37;4.07;;;;;;;-18.25;100.00;98649.75;4940726;28;20058;-70
2024/01/14 05:31:26;;;;;;;9.68;4.38;;;;;;;-18.21;100.00;98644.66;4956807;28;20123;-72
2024/01/14 05:33:53;;;;;;;4.93;3.80;;;;;;;-18.12;100.00;98641.22;4956971;28;20046;-68
2024/01/14 05:36:19;;;;;;;11.63;4.75;;;;;;;-18.16;100.00;98647.16;4924445;28;20517;-73
2024/01/14 05:38:45;;;;;;;8.57;3.80;;;;;;;-18.08;100.00;98647.97;4924115;28;20050;-66
2024/01/14 05:41:14;;;;;;;8.98;5.15;;;;;;;-18.00;100.00;98634.38;4940309;28;20050;-68
2024/01/14 05:43:41;;;;;;;;;;;;;;;-17.88;100.00;98625.88;4910787;28;20450;-69
2024/01/14 05:46:07;;;;;;;8.97;4.63;;;;;;;-18.02;100.00;98635.25;4921706;29;20021;-72
2024/01/14 05:48:33;;;;;;;9.70;4.73;;;;;;;-17.97;100.00;98631.00;4905988;29;20059;-68
2024/01/14 05:51:04;;;;;;;6.05;3.85;;;;;;;-18.01;100.00;98630.19;4907400;29;20070;-68
2024/01/14 05:53:31;;;;;;;7.18;3.88;;;;;;;-17.99;100.00;98632.69;4957767;28;20149;-67
2024/01/14 05:55:57;;;;;;;7.88;4.65;;;;;;;-18.01;100.00;98630.19;4973564;28;20078;-65
2024/01/14 05:58:23;;;;;;;6.57;4.43;;;;;;;-17.95;100.00;98625.94;4968677;28;20077;-69
2024/01/14 06:00:49;;;;;;;12.67;4.67;;;;;;;-17.88;100.00;98622.47;4979601;28;20091;-66
2024/01/14 06:03:16;;;;;;;9.90;4.73;;;;;;;-17.77;100.00;98621.53;4978856;28;20139;-70
2024/01/14 06:05:43;;;;;;;16.35;4.97;;;;;;;-17.76;100.00;98620.69;4994816;28;20074;-64
2024/01/14 06:08:12;;;;;;;8.38;5.03;;;;;;;-17.72;100.00;98603.78;5006226;28;20549;-66
2024/01/14 06:10:38;;;;;;;9.55;4.22;;;;;;;-17.79;100.00;98599.59;5056848;28;20097;-69
2024/01/14 06:13:04;;;;;;;11.65;4.82;;;;;;;-17.75;100.00;98607.16;5073715;28;20139;-70
2024/01/14 06:15:30;;;;;;;8.05;4.68;;;;;;;-17.74;100.00;98608.84;5041312;28;20052;-68
2024/01/14 06:17:56;;;;;;;13.43;4.70;;;;;;;-17.70;100.00;98605.44;5073674;28;20369;-68
2024/01/14 06:20:22;;;;;;;12.37;5.10;;;;;;;-17.70;100.00;98600.38;5073477;28;20048;-68
2024/01/14 06:22:47;;;;;;;11.27;4.97;;;;;;;-17.63;100.00;98601.16;5029366;27;20141;-69
2024/01/14 06:25:14;;;;;;;6.00;4.63;;;;;;;-17.57;100.00;98593.50;5053855;28;20087;-69
2024/01/14 06:27:40;;;;;;;8.65;4.60;;;;;;;-17.54;100.00;98596.81;5021526;28;20450;-69
2024/01/14 06:30:07;;;;;;;10.33;5.27;;;;;;;-17.43;100.00;98601.81;5038158;28;20093;-69
2024/01/14 06:32:32;;;;;;;9.80;5.07;;;;;;;-17.42;100.00;98596.69;5038819;28;20550;-69
2024/01/14 06:34:58;;;;;;;6.57;4.43;;;;;;;-17.39;100.00;98581.47;5054841;28;20066;-69
2024/01/14 06:37:24;;;;;;;8.17;5.17;;;;;;;-17.33;100.00;98585.63;5022123;28;20076;-68
2024/01/14 06:39:51;;;;;;;13.80;5.40;;;;;;;-17.34;100.00;98578.88;5041173;28;20044;-69
2024/01/14 06:42:17;;;;;;;14.97;6.23;;;;;;;-17.24;100.00;98585.50;5024338;28;20456;-69
2024/01/14 06:44:44;;;;;;;11.73;5.25;;;;;;;-17.12;100.00;98576.09;5041061;28;20059;-68
2024/01/14 06:47:10;;;;;;;17.07;6.20;;;;;;;-17.06;100.00;98575.16;5057424;28;20048;-68
2024/01/14 06:49:36;;;;;;;10.32;5.43;;;;;;;-17.08;100.00;98587.88;5057262;28;20051;-68
2024/01/14 06:52:02;;;;;;;11.17;5.43;;;;;;;-17.08;100.00;98580.25;5040752;28;20082;-68
2024/01/14 06:54:29;;;;;;;12.20;6.27;;;;;;;-17.01;100.00;98575.97;5040640;28;20064;-68
2024/01/14 06:56:55;;;;;;;15.70;6.38;;;;;;;-17.06;100.00;98577.69;5060087;27;20047;-70
2024/01/14 06:59:21;;;;;;;11.13;6.27;;;;;;;-17.11;100.00;98584.53;5063928;27;20100;-68
2024/01/14 07:01:47;;;;;;;19.83;6.20;;;;;;;-17.17;100.00;98599.84;5063746;27;20077;-68
2024/01/14 07:04:14;;;;;;;11.30;6.05;;;;;;;-17.20;100.00;98595.63;5097143;27;20078;-67
2024/01/14 07:06:40;;;;;;;15.93;6.97;;;;;;;-17.23;100.00;98572.00;5097460;27;20126;-69
2024/01/14 07:09:10;;;;;;;12.00;6.07;;;;;;;-17.21;100.00;98560.97;5080437;27;20043;-69
2024/01/14 07:11:36;;;;;;;16.00;6.45;;;;;;;-17.12;100.00;98562.53;5115081;27;20054;-69
2024/01/14 07:14:03;;;;;;;12.13;6.00;;;;;;;-17.03;100.00;98560.75;5064494;27;20058;-68
2024/01/14 07:16:30;;;;;;;11.75;6.47;;;;;;;-16.86;100.00;98560.53;5064413;27;20505;-69
2024/01/14 07:18:55;;;;;;;17.20;5.65;;;;;;;-16.81;100.00;98554.56;5097429;27;20486;-68
2024/01/14 07:21:23;;;;;;;10.23;5.43;;;;;;;-16.76;100.00;98542.66;5049511;28;20056;-68
2024/01/14 07:23:49;;;;;;;12.07;5.38;;;;;;;-16.62;100.00;98528.06;5039849;28;20113;-68
2024/01/14 07:26:17;;;;;;;10.63;5.25;;;;;;;-16.50;100.00;98529.59;5040192;28;20146;-68
2024/01/14 07:28:44;;;;;;;11.07;5.57;;;;;;;-16.39;100.00;98546.31;5041013;28;20048;-68
2024/01/14 07:31:20;;;;;;;9.32;5.20;;;;;;;-16.39;100.00;98538.69;5052663;28;20056;-69
2024/01/14 07:33:52;;;;;;;11.75;5.80;;;;;;;-16.28;100.00;98536.84;5037032;28;20043;-68
2024/01/14 07:36:22;;;;;;;15.00;6.80;;;;;;;-16.36;100.00;98520.88;4996915;28;20443;-68
2024/01/14 07:38:51;;;;;;;8.32;5.43;;;;;;;-16.30;100.00;98540.28;4973427;28;20493;-68
2024/01/14 07:41:17;;;;;;;14.50;6.55;;;;;;;-16.47;100.00;98534.63;4957446;28;20054;-68
2024/01/14 07:43:43;;;;;;;12.83;5.57;;;;;;;-16.37;100.00;98529.38;4926010;28;20061;-68
2024/01/14 07:46:09;;;;;;;16.83;6.57;;;;;;;-16.26;100.00;98539.38;4941967;28;20076;-68
2024/01/14 07:48:37;;;;;;;10.93;6.30;;;;;;;-16.24;100.00;98543.59;4900738;29;20059;-71
2024/01/14 07:51:03;;;;;;;12.80;6.43;;;;;;;-16.23;100.00;98527.47;4915789;29;20047;-68
2024/01/14 07:53:29;;;;;;;18.17;7.00;;;;;;;-16.16;100.00;98525.69;4937369;28;20097;-68
2024/01/14 07:55:56;;;;;;;13.13;7.55;;;;;;;-16.13;100.00;98506.13;4938206;28;20054;-68
2024/01/14 07:58:22;;;;;;;13.43;6.55;;;;;;;-16.06;100.00;98514.50;4937948;28;20051;-69
2024/01/14 08:00:47;;;;;;;16.90;7.40;;;;;;;-15.96;100.00;98503.31;4954137;28;20058;-68
2024/01/14 08:03:14;;;;;;;12.20;5.70;;;;;;;-15.80;100.00;98501.38;4956878;28;20386;-69
2024/01/14 08:05:42;;;;;;;13.95;6.13;;;;;;;-15.64;100.00;98511.25;4957063;28;20074;-69
2024/01/14 08:08:09;;;;;;;9.68;5.18;;;;;;;-15.46;100.00;98494.78;4988246;28;20061;-69
2024/01/14 08:10:35;;;;;;;12.15;6.18;;;;;;;-15.23;100.00;98500.25;5025652;28;20073;-69
2024/01/14 08:13:03;;;;;;;14.13;7.30;;;;;;;-15.09;100.00;98490.63;4999346;28;20112;-68
2024/01/14 08:15:31;;;;;;;12.47;6.23;;;;;;;-15.01;100.00;98482.00;5015698;28;20763;-69
2024/01/14 08:17:59;;;;;;;13.70;6.80;;;;;;;-15.03;100.00;98478.63;5000404;28;20330;-69
2024/01/14 08:20:25;;;;;;;11.83;6.70;;;;;;;-14.95;100.00;98479.31;4983223;28;20040;-69
2024/01/14 08:22:54;;;;;;;13.17;6.97;;;;;;;-14.72;100.00;98459.28;4983394;28;20401;-68
2024/01/14 08:25:24;;;;;;;17.73;8.70;;;;;;;-14.77;100.00;98468.72;5036883;28;20292;-68
2024/01/14 08:27:52;;;;;;;16.10;8.00;;;;;;;-14.62;100.00;98467.56;5062629;28;20074;-66
2024/01/14 08:30:18;;;;;;;18.47;8.03;;;;;;;-14.60;100.00;98464.09;5062093;28;20372;-66
2024/01/14 08:32:44;;;;;;;15.90;8.23;;;;;;;-14.57;100.00;98461.50;5060204;28;20285;-67
2024/01/14 08:35:13;;;;;;;18.57;7.57;;;;;;;-14.45;100.00;98453.56;5059893;28;20282;-71
2024/01/14 08:37:51;;;;;;;15.18;8.25;;;;;;;-14.31;100.00;98461.72;5078487;28;20138;-66
2024/01/14 08:40:18;;;;;;;15.97;7.83;;;;;;;-14.27;100.00;98451.47;5045774;28;20048;-67
2024/01/14 08:42:48;;;;;;;16.33;8.87;;;;;;;-14.16;100.00;98457.97;5062633;28;20308;-67
2024/01/14 08:45:16;;;;;;;17.10;7.45;;;;;;;-14.23;100.00;98454.72;5043842;28;20356;-67
2024/01/14 08:47:43;;;;;;;16.73;7.10;;;;;;;-14.12;100.00;98443.41;5061818;28;20580;-68
2024/01/14 08:50:10;;;;;;;16.80;7.53;;;;;;;-14.15;100.00;98451.13;5058746;28;20282;-70
2024/01/14 08:52:37;;;;;;;15.07;6.80;;;;;;;-14.20;100.00;98435.13;5079151;28;20265;-70
2024/01/14 08:55:04;;;;;;;20.73;7.47;;;;;;;-14.22;100.00;98440.25;5060156;28;20409;-68
2024/01/14 08:57:30;;;;;;;14.43;7.20;;;;;;;-14.31;100.00;98433.69;5061448;28;20296;-68
2024/01/14 08:59:57;;;;;;;11.60;6.83;;;;;;;-14.24;100.00;98436.09;5062025;28;20278;-68
2024/01/14 09:02:25;;;;;;;11.33;6.90;;;;;;;-14.13;100.00;98418.78;5095673;28;20039;-67
2024/01/14 09:04:51;;;;;;;11.03;6.77;;;;;;;-14.09;100.00;98420.38;5098916;27;20303;-68
2024/01/14 09:07:17;;;;;;;14.57;6.77;;;;;;;-13.99;100.00;98417.59;5099316;27;20395;-69
2024/01/14 09:09:45;;;;;;;13.23;7.03;;;;;;;-13.94;100.00;98408.06;5095060;28;20688;-70
2024/01/14 09:12:14;;;;;;;16.60;7.50;;;;;;;-13.91;100.00;98404.63;5058104;28;20289;-67
2024/01/14 09:14:40;;;;;;;12.73;6.43;;;;;;;-13.87;100.00;98407.06;5057824;28;20048;-68
2024/01/14 09:17:09;;;;;;;15.37;7.70;;;;;;;-13.89;100.00;98398.59;5041398;28;20032;-67
2024/01/14 09:19:37;;;;;;;13.70;6.10;;;;;;;-13.80;100.00;98387.31;5041550;28;20332;-70
2024/01/14 09:22:03;;;;;;;14.80;6.57;;;;;;;-13.81;100.00;98375.44;5038602;28;20295;-68
2024/01/14 09:24:55;;;;;;;11.70;6.93;;;;;;;-13.47;100.00;98371.09;5041490;28;20302;-69
2024/01/14 09:27:23;;;;;;;13.73;6.87;;;;;;;-13.46;100.00;98375.28;5057426;28;20296;-69
2024/01/14 09:29:50;;;;;;;12.47;6.53;;;;;;;-13.40;100.00;98373.41;5058142;28;20379;-66
2024/01/14 09:32:19;;;;;;;9.20;6.00;;;;;;;-13.33;100.00;98374.09;4987805;28;20304;-71
2024/01/14 09:34:57;;;;;;;12.80;6.77;;;;;;;-13.16;100.00;98370.16;5007963;28;20332;-68
2024/01/14 09:37:23;;;;;;;12.70;6.60;;;;;;;-13.16;100.00;98372.69;5010762;28;20293;-70
2024/01/14 09:39:52;;;;;;;13.40;6.03;;;;;;;-12.96;100.00;98364.44;4981128;28;20293;-67
2024/01/14 09:42:35;;;;;;;14.13;7.43;;;;;;;-12.88;100.00;98347.13;5011464;28;20307;-69
2024/01/14 09:45:05;;;;;;;11.63;6.50;;;;;;;-12.92;100.00;98348.97;5044217;28;20276;-70
2024/01/14 09:47:39;;;;;;;13.73;6.80;;;;;;;-12.85;100.00;98347.88;4991040;28;20285;-67
2024/01/14 09:50:10;;;;;;;9.63;5.70;;;;;;;-12.78;100.00;98338.31;4958598;28;20316;-72
2024/01/14 09:52:41;;;;;;;12.00;6.13;;;;;;;-12.60;100.00;98337.72;4980039;28;20292;-71
2024/01/14 09:55:10;;;;;;;13.38;6.68;;;;;;;-12.55;100.00;98336.72;4972650;28;20285;-71
2024/01/14 09:57:40;;;;;;;12.50;7.23;;;;;;;-12.38;100.00;98337.88;5008770;28;20520;-72
2024/01/14 10:00:08;;;;;;;16.33;6.90;;;;;;;-12.42;100.00;98326.91;5006335;28;20299;-72
2024/01/14 10:02:40;;;;;;;17.37;7.50;;;;;;;-12.37;100.00;98332.69;4961858;28;20296;-72
2024/01/14 10:05:10;;;;;;;13.30;6.68;;;;;;;-12.28;100.00;98323.91;4977695;28;20327;-72
2024/01/14 10:07:39;;;;;;;11.67;6.33;;;;;;;-12.32;100.00;98322.31;4921277;28;20050;-72
2024/01/14 10:10:08;;;;;;;20.67;7.70;;;;;;;-12.32;100.00;98317.19;4931032;28;20330;-72
2024/01/14 10:12:37;;;;;;;19.73;7.53;;;;;;;-12.39;100.00;98310.63;4946376;28;20298;-71
2024/01/14 10:15:08;;;;;;;13.87;6.90;;;;;;;-12.23;100.00;98299.84;4922805;29;20849;-69
2024/01/14 10:17:34;;;;;;;18.05;7.03;;;;;;;-12.35;100.00;98295.13;4918052;29;20287;-66
2024/01/14 10:20:01;;;;;;;13.47;7.13;;;;;;;-12.29;100.00;98292.38;4898500;29;20613;-65
2024/01/14 10:22:27;;;;;;;16.23;7.60;;;;;;;-12.24;100.00;98294.78;4922534;29;20048;-67
2024/01/14 10:25:05;;;;;;;16.57;7.87;;;;;;;-12.21;100.00;98292.09;4895768;29;20289;-69
2024/01/14 10:27:36;;;;;;;20.23;7.63;;;;;;;-12.28;100.00;98291.47;4931151;29;20299;-70
2024/01/14 10:30:13;;;;;;;17.37;6.83;;;;;;;-12.31;100.00;98273.69;4932653;29;20390;-69
2024/01/14 10:32:40;;;;;;;15.23;7.40;;;;;;;-12.30;100.00;98282.19;4880535;29;20633;-70
2024/01/14 10:35:14;;;;;;;15.63;7.10;;;;;;;-12.30;100.00;98283.03;4896271;29;20295;-69
2024/01/14 10:37:48;;;;;;;12.43;7.00;;;;;;;-12.30;100.00;98277.94;4898316;29;20357;-69
2024/01/14 10:40:16;;;;;;;16.57;7.53;;;;;;;-12.38;100.00;98293.50;4980791;28;20392;-69
2024/01/14 10:42:44;;;;;;;16.97;7.27;;;;;;;-12.46;100.00;98279.31;4990681;28;20278;-68
2024/01/14 10:45:17;;;;;;;11.40;6.43;;;;;;;-12.44;100.00;98275.81;4992344;28;20327;-69
2024/01/14 10:47:53;;;;;;;14.03;6.90;;;;;;;-12.31;100.00;98276.22;4978754;28;20751;-75
2024/01/14 10:50:23;;;;;;;15.53;7.53;;;;;;;-12.28;100.00;98270.19;5027225;28;20871;-68
2024/01/14 10:52:56;;;;;;;15.63;7.17;;;;;;;-12.22;100.00;98265.69;5011001;28;20330;-73
2024/01/14 10:55:40;;;;;;;13.80;7.43;;;;;;;-12.10;100.00;98246.53;4992542;28;20300;-72
2024/01/14 10:58:15;;;;;;;13.93;6.37;;;;;;;-12.03;100.00;98253.94;5014551;28;20307;-69
2024/01/14 11:00:46;;;;;;;18.43;7.23;;;;;;;-11.99;100.00;98240.13;5029330;28;20804;-69
2024/01/14 11:03:13;;;;;;;11.15;6.03;;;;;;;-11.92;100.00;98244.16;5032149;28;20773;-72
2024/01/14 11:05:44;;;;;;;13.65;6.38;;;;;;;-11.95;100.00;98244.25;5050003;28;20163;-72
2024/01/14 11:08:15;;;;;;;12.87;6.47;;;;;;;-11.96;100.00;98231.53;4999940;28;20052;-70
2024/01/14 11:10:46;;;;;;;12.73;7.07;;;;;;;-12.02;100.00;98230.00;5029864;28;20299;-69
2024/01/14 11:13:28;;;;;;;15.40;7.32;;;;;;;-11.92;100.00;98225.41;5028410;28;20771;-66
2024/01/14 11:16:22;;;;;;;18.17;7.57;;;;;;;-12.05;100.00;98242.91;5000297;28;20056;-70